Time;durP1;ratioP1;P1;durP2;ratioP2;P2;SDS_P1;SDS_P2;PMS_P1;PMS_P2;Temp;Humidity;BMP_temperature;BMP_pressure;BME280_temperature;BME280_humidity;BME280_pressure;Samples;Min_cycle;Max_cycle;Signal;HPM_P1;HPM_P2
2021/01/02 00:00:36;;;;;;;1999.90;999.90;;;3.90;99.90;;;;;;5032358;28;20169;-62
2021/01/02 00:03:24;;;;;;;1999.90;999.90;;;3.90;99.90;;;;;;5032275;28;20191;-62
2021/01/02 00:06:01;;;;;;;1999.90;999.90;;;3.90;99.90;;;;;;5032261;28;20229;-63
2021/01/02 00:08:28;;;;;;;1999.90;999.90;;;3.90;99.90;;;;;;5032208;28;20152;-62
2021/01/02 00:11:15;;;;;;;1999.90;999.90;;;4.00;99.90;;;;;;5032226;28;20844;-62
2021/01/02 00:13:52;;;;;;;1999.90;999.90;;;4.00;99.90;;;;;;5031996;28;20239;-61
2021/01/02 00:16:40;;;;;;;1999.90;999.90;;;4.00;99.90;;;;;;5032128;28;20161;-61
2021/01/02 00:19:17;;;;;;;1999.90;999.90;;;4.00;99.90;;;;;;5032005;28;20244;-62
2021/01/02 00:22:01;;;;;;;1999.90;999.90;;;4.00;99.90;;;;;;5032003;28;20192;-62
2021/01/02 00:24:39;;;;;;;1999.90;999.90;;;4.00;99.90;;;;;;5032031;28;20156;-62
2021/01/02 00:27:08;;;;;;;1999.90;999.90;;;3.90;99.90;;;;;;5031971;28;20168;-61
2021/01/02 00:30:15;;;;;;;1999.90;999.90;;;3.90;99.90;;;;;;5031868;28;20165;-62
2021/01/02 00:32:55;;;;;;;1999.90;999.90;;;3.90;99.90;;;;;;4989958;28;20800;-62
2021/01/02 00:35:26;;;;;;;1999.90;999.90;;;3.90;99.90;;;;;;5029019;28;20724;-63
2021/01/02 00:38:06;;;;;;;1999.90;999.90;;;3.90;99.90;;;;;;5031737;28;20164;-62
2021/01/02 00:40:38;;;;;;;1999.90;999.90;;;3.90;99.90;;;;;;5031984;28;20161;-62
2021/01/02 00:43:04;;;;;;;1999.90;999.90;;;4.00;99.90;;;;;;5031838;28;20184;-61
2021/01/02 00:45:34;;;;;;;1999.90;999.90;;;4.00;99.90;;;;;;5031587;28;20207;-61
2021/01/02 00:48:06;;;;;;;1999.90;999.90;;;4.00;99.90;;;;;;5031505;28;20172;-61
2021/01/02 00:50:32;;;;;;;1999.90;999.90;;;4.10;99.90;;;;;;5031441;28;20180;-60
2021/01/02 00:53:43;;;;;;;1999.90;999.90;;;4.10;99.90;;;;;;5031621;28;20245;-61
2021/01/02 00:56:28;;;;;;;1999.90;999.90;;;4.00;99.90;;;;;;5020909;28;20180;-62
2021/01/02 00:59:35;;;;;;;1999.90;999.90;;;3.90;99.90;;;;;;5031779;28;20177;-63
2021/01/02 01:02:50;;;;;;;1999.90;999.90;;;3.90;99.90;;;;;;5025813;28;20184;-61
2021/01/02 01:05:20;;;;;;;1999.90;999.90;;;3.90;99.90;;;;;;5031548;28;20214;-62
2021/01/02 01:07:51;;;;;;;1999.90;999.90;;;3.80;99.90;;;;;;5031419;28;20164;-61
2021/01/02 01:10:21;;;;;;;1999.90;999.90;;;3.90;99.90;;;;;;5031314;28;20176;-62
2021/01/02 01:13:14;;;;;;;1999.90;999.90;;;3.90;99.90;;;;;;5031160;28;20200;-60
2021/01/02 01:15:41;;;;;;;1999.90;999.90;;;3.90;99.90;;;;;;5030878;28;20212;-62
2021/01/02 01:18:18;;;;;;;1999.90;999.90;;;3.90;99.90;;;;;;5031052;28;20169;-62
2021/01/02 01:20:56;;;;;;;1999.90;999.90;;;3.80;99.90;;;;;;5031357;28;20526;-61
2021/01/02 01:23:50;;;;;;;1999.90;999.90;;;3.80;99.90;;;;;;5030985;28;20188;-59
2021/01/02 01:26:27;;;;;;;1999.90;999.90;;;3.60;99.90;;;;;;5030990;28;20203;-62
2021/01/02 01:28:59;;;;;;;1999.90;999.90;;;3.50;99.90;;;;;;5030837;28;20172;-61
2021/01/02 01:31:30;;;;;;;1999.90;999.90;;;3.60;99.90;;;;;;5030984;28;20271;-62
2021/01/02 01:34:00;;;;;;;1999.90;999.90;;;3.50;99.90;;;;;;5030805;28;20203;-62
2021/01/02 01:36:34;;;;;;;1999.90;999.90;;;3.40;99.90;;;;;;5031168;28;20184;-62
2021/01/02 01:39:03;;;;;;;1999.90;999.90;;;3.40;99.90;;;;;;5030819;28;20164;-63
2021/01/02 01:41:42;;;;;;;1999.90;999.90;;;3.30;99.90;;;;;;5030774;28;20214;-60
2021/01/02 01:44:10;;;;;;;1999.90;999.90;;;3.30;99.90;;;;;;5030848;28;20665;-62
2021/01/02 01:46:42;;;;;;;1999.90;999.90;;;3.40;99.90;;;;;;5031045;28;20230;-62
2021/01/02 01:49:10;;;;;;;1999.90;999.90;;;3.40;99.90;;;;;;5030745;28;20160;-62
2021/01/02 01:51:59;;;;;;;1999.90;999.90;;;3.30;99.90;;;;;;5030671;28;20183;-61
2021/01/02 01:54:55;;;;;;;1999.90;999.90;;;3.40;99.90;;;;;;5030673;28;20180;-62
2021/01/02 01:57:35;;;;;;;1999.90;999.90;;;3.30;99.90;;;;;;5030948;28;20188;-62
2021/01/02 02:00:08;;;;;;;1999.90;999.90;;;3.30;99.90;;;;;;5030575;28;20168;-59
2021/01/02 02:02:40;;;;;;;1999.90;999.90;;;3.30;99.90;;;;;;5030584;28;20191;-62
2021/01/02 02:05:08;;;;;;;1999.90;999.90;;;3.30;99.90;;;;;;5030504;28;20634;-61
2021/01/02 02:07:57;;;;;;;1999.90;999.90;;;3.40;99.90;;;;;;5030592;28;20286;-62
2021/01/02 02:10:29;;;;;;;1999.90;999.90;;;3.40;99.90;;;;;;5030522;28;20161;-63
2021/01/02 02:12:57;;;;;;;1999.90;999.90;;;3.50;99.90;;;;;;5030507;28;20223;-63
2021/01/02 02:15:26;;;;;;;1999.90;999.90;;;3.50;99.90;;;;;;5031642;28;20650;-62
2021/01/02 02:18:14;;;;;;;1999.90;999.90;;;3.40;99.90;;;;;;5034546;28;20275;-62
2021/01/02 02:20:53;;;;;;;1999.90;999.90;;;3.50;99.90;;;;;;5033947;28;20181;-61
2021/01/02 02:23:27;;;;;;;1999.90;999.90;;;3.50;99.90;;;;;;5034389;28;20187;-63
2021/01/02 02:26:28;;;;;;;1999.90;999.90;;;3.40;99.90;;;;;;5034243;28;20202;-61
2021/01/02 02:28:57;;;;;;;1999.90;999.90;;;3.50;99.90;;;;;;5034048;28;20159;-62
2021/01/02 02:31:23;;;;;;;1999.90;999.90;;;3.40;99.90;;;;;;5034097;28;20169;-60
2021/01/02 02:34:00;;;;;;;1999.90;999.90;;;3.40;99.90;;;;;;5033752;28;20299;-62
2021/01/02 02:36:29;;;;;;;1999.90;999.90;;;3.50;99.90;;;;;;5034040;28;20208;-62
2021/01/02 02:38:57;;;;;;;1999.90;999.90;;;3.50;99.90;;;;;;5033959;28;20169;-62
2021/01/02 02:41:28;;;;;;;1999.90;999.90;;;3.50;99.90;;;;;;5033915;28;20172;-61
2021/01/02 02:43:56;;;;;;;1999.90;999.90;;;3.50;99.90;;;;;;5033860;28;20188;-61
2021/01/02 02:46:23;;;;;;;1999.90;999.90;;;3.50;99.90;;;;;;5033804;28;20215;-63
2021/01/02 02:48:54;;;;;;;1999.90;999.90;;;3.60;99.90;;;;;;5033651;28;20165;-61
2021/01/02 02:51:24;;;;;;;1999.90;999.90;;;3.50;99.90;;;;;;5033814;28;20187;-62
2021/01/02 02:53:51;;;;;;;1999.90;999.90;;;3.40;99.90;;;;;;5033642;28;20275;-62
2021/01/02 02:56:17;;;;;;;1999.90;999.90;;;3.40;99.90;;;;;;5033680;28;20168;-61
2021/01/02 02:58:43;;;;;;;1999.90;999.90;;;3.40;99.90;;;;;;5033639;28;20638;-62
2021/01/02 03:01:09;;;;;;;1999.90;999.90;;;3.50;99.90;;;;;;5033822;28;20256;-62
2021/01/02 03:03:34;;;;;;;1999.90;999.90;;;3.50;99.90;;;;;;5033599;28;20225;-61
2021/01/02 03:06:00;;;;;;;1999.90;999.90;;;3.50;99.90;;;;;;5033577;28;20653;-59
2021/01/02 03:08:26;;;;;;;1999.90;999.90;;;3.50;99.90;;;;;;5033634;28;20173;-59
2021/01/02 03:10:52;;;;;;;1999.90;999.90;;;3.50;99.90;;;;;;5033621;28;20411;-61
2021/01/02 03:13:18;;;;;;;1999.90;999.90;;;3.50;99.90;;;;;;5033313;28;20207;-61
2021/01/02 03:15:43;;;;;;;1999.90;999.90;;;3.60;99.90;;;;;;5033510;28;20207;-62
2021/01/02 03:18:12;;;;;;;1999.90;999.90;;;3.60;99.90;;;;;;5033141;28;20214;-62
2021/01/02 03:20:38;;;;;;;1999.90;999.90;;;3.50;99.90;;;;;;5033459;28;20191;-63
2021/01/02 03:23:04;;;;;;;1999.90;999.90;;;3.60;99.90;;;;;;5033319;28;20196;-61
2021/01/02 03:25:30;;;;;;;1999.90;999.90;;;3.60;99.90;;;;;;5033088;28;20411;-61
2021/01/02 03:27:57;;;;;;;1999.90;999.90;;;3.50;99.90;;;;;;5031868;28;20195;-61
2021/01/02 03:30:26;;;;;;;1999.90;999.90;;;3.50;99.90;;;;;;5032868;28;20179;-58
2021/01/02 03:32:52;;;;;;;1999.90;999.90;;;3.50;99.90;;;;;;5032718;28;20211;-63
2021/01/02 03:35:18;;;;;;;1999.90;999.90;;;3.50;99.90;;;;;;5032869;28;20326;-62
2021/01/02 03:37:46;;;;;;;1999.90;999.90;;;3.40;99.90;;;;;;5032841;28;20187;-62
2021/01/02 03:40:15;;;;;;;1999.90;999.90;;;3.40;99.90;;;;;;5032744;28;20200;-62
2021/01/02 03:42:45;;;;;;;1999.90;999.90;;;3.50;99.90;;;;;;5032974;28;20196;-61
2021/01/02 03:45:13;;;;;;;1999.90;999.90;;;3.50;99.90;;;;;;5031741;28;20873;-61
2021/01/02 03:47:42;;;;;;;1999.90;999.90;;;3.40;99.90;;;;;;5032579;28;20176;-62
2021/01/02 03:50:08;;;;;;;1999.90;999.90;;;3.50;99.90;;;;;;5032554;28;20176;-59
2021/01/02 03:52:38;;;;;;;1999.90;999.90;;;3.40;99.90;;;;;;5032495;28;20200;-62
2021/01/02 03:55:08;;;;;;;1999.90;999.90;;;3.40;99.90;;;;;;5032529;28;20278;-61
2021/01/02 03:57:34;;;;;;;1999.90;999.90;;;3.30;99.90;;;;;;5032512;28;20525;-62
2021/01/02 04:00:00;;;;;;;1999.90;999.90;;;3.30;99.90;;;;;;5032391;28;20403;-61
2021/01/02 04:02:26;;;;;;;1999.90;999.90;;;3.20;99.90;;;;;;5032329;28;20426;-62
2021/01/02 04:04:52;;;;;;;1999.90;999.90;;;3.20;99.90;;;;;;5032312;28;20247;-61
2021/01/02 04:07:17;;;;;;;1999.90;999.90;;;3.20;99.90;;;;;;5032333;28;20251;-61
2021/01/02 04:09:43;;;;;;;1999.90;999.90;;;3.20;99.90;;;;;;5032366;28;20173;-62
2021/01/02 04:12:09;;;;;;;1999.90;999.90;;;3.20;99.90;;;;;;5032315;28;20604;-62
2021/01/02 04:14:35;;;;;;;1999.90;999.90;;;3.10;99.90;;;;;;5032131;28;20196;-62
2021/01/02 04:17:00;;;;;;;1999.90;999.90;;;3.10;99.90;;;;;;5032084;28;20422;-63
2021/01/02 04:19:26;;;;;;;1999.90;999.90;;;3.10;99.90;;;;;;5032026;28;20164;-61
2021/01/02 04:21:51;;;;;;;1999.90;999.90;;;3.10;99.90;;;;;;5032412;28;20175;-60
2021/01/02 04:24:17;;;;;;;1999.90;999.90;;;3.10;99.90;;;;;;5032268;28;20179;-62
2021/01/02 04:26:43;;;;;;;1999.90;999.90;;;3.10;99.90;;;;;;5031984;28;20176;-62
2021/01/02 04:29:08;;;;;;;1999.90;999.90;;;3.10;99.90;;;;;;5031825;28;20169;-62
2021/01/02 04:31:36;;;;;;;1999.90;999.90;;;3.20;99.90;;;;;;5031814;28;20544;-61
2021/01/02 04:34:04;;;;;;;1999.90;999.90;;;3.10;99.90;;;;;;5047080;22;20736;-64
2021/01/02 04:36:29;;;;;;;1999.90;999.90;;;3.20;99.90;;;;;;5031828;28;20702;-66
2021/01/02 04:38:55;;;;;;;1999.90;999.90;;;3.20;99.90;;;;;;5031184;28;20165;-65
2021/01/02 04:41:21;;;;;;;1999.90;999.90;;;3.20;99.90;;;;;;5031888;28;20171;-66
2021/01/02 04:43:48;;;;;;;1999.90;999.90;;;3.20;99.90;;;;;;5031574;28;20773;-65
2021/01/02 04:46:14;;;;;;;1999.90;999.90;;;3.30;99.90;;;;;;5031629;28;20645;-65
2021/01/02 04:48:45;;;;;;;1999.90;999.90;;;3.40;99.90;;;;;;5031399;28;20187;-64
2021/01/02 04:51:12;;;;;;;1999.90;999.90;;;3.40;99.90;;;;;;5031582;28;20172;-65
2021/01/02 04:53:38;;;;;;;1999.90;999.90;;;3.40;99.90;;;;;;5031246;28;20283;-65
2021/01/02 04:56:05;;;;;;;1999.90;999.90;;;3.40;99.90;;;;;;5031289;28;20199;-66
2021/01/02 04:58:34;;;;;;;1999.90;999.90;;;3.40;99.90;;;;;;5031110;28;20172;-65
2021/01/02 05:01:03;;;;;;;1999.90;999.90;;;3.40;99.90;;;;;;5031257;28;20172;-65
2021/01/02 05:03:29;;;;;;;1999.90;999.90;;;3.40;99.90;;;;;;5031207;28;20187;-65
2021/01/02 05:05:55;;;;;;;1999.90;999.90;;;3.30;99.90;;;;;;5031193;28;20294;-65
2021/01/02 05:08:21;;;;;;;1999.90;999.90;;;3.40;99.90;;;;;;5030975;28;20263;-66
2021/01/02 05:10:59;;;;;;;1999.90;999.90;;;3.40;99.90;;;;;;5031159;28;20173;-65
2021/01/02 05:13:33;;;;;;;1999.90;999.90;;;3.40;99.90;;;;;;5031090;28;20606;-65
2021/01/02 05:16:20;;;;;;;1999.90;999.90;;;3.40;99.90;;;;;;5031003;28;20203;-65
2021/01/02 05:19:00;;;;;;;1999.90;999.90;;;3.50;99.90;;;;;;5030749;28;20180;-65
2021/01/02 05:21:27;;;;;;;1999.90;999.90;;;3.50;99.90;;;;;;5031123;28;20161;-64
2021/01/02 05:24:11;;;;;;;1999.90;999.90;;;3.40;99.90;;;;;;5030999;28;20188;-65
2021/01/02 05:26:59;;;;;;;1999.90;999.90;;;3.50;99.90;;;;;;5030951;28;20175;-65
2021/01/02 05:29:26;;;;;;;1999.90;999.90;;;3.50;99.90;;;;;;5025236;28;20653;-66
2021/01/02 05:31:57;;;;;;;1999.90;999.90;;;3.50;99.90;;;;;;5030799;28;20696;-65
2021/01/02 05:34:28;;;;;;;1999.90;999.90;;;3.50;99.90;;;;;;5030671;28;20216;-65
2021/01/02 05:37:01;;;;;;;1999.90;999.90;;;3.50;99.90;;;;;;5030952;28;20164;-66
2021/01/02 05:39:49;;;;;;;1999.90;999.90;;;3.50;99.90;;;;;;5030608;28;20199;-65
2021/01/02 05:42:16;;;;;;;1999.90;999.90;;;3.60;99.90;;;;;;5030790;28;20215;-65
2021/01/02 05:44:42;;;;;;;1999.90;999.90;;;3.60;99.90;;;;;;5030901;28;20184;-65
2021/01/02 05:47:12;;;;;;;1999.90;999.90;;;3.50;99.90;;;;;;5030899;28;20172;-65
2021/01/02 05:49:46;;;;;;;1999.90;999.90;;;3.50;99.90;;;;;;5030480;28;20418;-66
2021/01/02 05:52:12;;;;;;;1999.90;999.90;;;3.50;99.90;;;;;;5034827;28;20319;-65
2021/01/02 05:54:47;;;;;;;1999.90;999.90;;;3.60;99.90;;;;;;5034719;28;20206;-66
2021/01/02 05:57:23;;;;;;;1999.90;999.90;;;3.50;99.90;;;;;;5034810;28;20213;-64
2021/01/02 05:59:52;;;;;;;1999.90;999.90;;;3.50;99.90;;;;;;5034433;28;20156;-65
2021/01/02 06:02:23;;;;;;;1999.90;999.90;;;3.50;99.90;;;;;;5034460;28;20180;-66
2021/01/02 06:04:59;;;;;;;1999.90;999.90;;;3.50;99.90;;;;;;5034688;28;20215;-65
2021/01/02 06:07:26;;;;;;;1999.90;999.90;;;3.50;99.90;;;;;;5034693;28;20186;-65
2021/01/02 06:09:52;;;;;;;1999.90;999.90;;;3.50;99.90;;;;;;5034346;28;20172;-64
2021/01/02 06:12:39;;;;;;;1999.90;999.90;;;3.60;99.90;;;;;;5034463;28;20171;-66
2021/01/02 06:15:08;;;;;;;1999.90;999.90;;;3.60;99.90;;;;;;5034461;28;20199;-65
2021/01/02 06:17:39;;;;;;;1999.90;999.90;;;3.70;99.90;;;;;;5034742;28;20195;-65
2021/01/02 06:20:13;;;;;;;1999.90;999.90;;;3.70;99.90;;;;;;5034475;28;20180;-65
2021/01/02 06:22:41;;;;;;;1999.90;999.90;;;3.70;99.90;;;;;;5034268;28;20214;-65
2021/01/02 06:25:08;;;;;;;1999.90;999.90;;;3.70;99.90;;;;;;5034228;28;20231;-65
2021/01/02 06:27:41;;;;;;;1999.90;999.90;;;3.70;99.90;;;;;;5034023;28;20653;-65
2021/01/02 06:30:07;;;;;;;1999.90;999.90;;;3.70;99.90;;;;;;5033815;28;20520;-65
2021/01/02 06:32:33;;;;;;;1999.90;999.90;;;3.60;99.90;;;;;;5033855;28;20215;-65
2021/01/02 06:35:08;;;;;;;1999.90;999.90;;;3.70;99.90;;;;;;5034004;28;20196;-65
2021/01/02 06:37:52;;;;;;;1999.90;999.90;;;3.70;99.90;;;;;;5034012;28;20402;-65
2021/01/02 06:40:21;;;;;;;1999.90;999.90;;;3.60;99.90;;;;;;5033882;28;20176;-65
2021/01/02 06:43:01;;;;;;;1999.90;999.90;;;3.60;99.90;;;;;;5033951;28;20192;-65
2021/01/02 06:45:35;;;;;;;1999.90;999.90;;;3.70;99.90;;;;;;5033937;28;20276;-66
2021/01/02 06:48:16;;;;;;;1999.90;999.90;;;3.60;99.90;;;;;;5033768;28;20579;-65
2021/01/02 06:50:46;;;;;;;1999.90;999.90;;;3.70;99.90;;;;;;5033791;28;20175;-66
2021/01/02 06:53:27;;;;;;;1999.90;999.90;;;3.70;99.90;;;;;;5033723;28;20203;-65
2021/01/02 06:55:59;;;;;;;1999.90;999.90;;;3.60;99.90;;;;;;5033620;28;20442;-65
2021/01/02 06:58:42;;;;;;;1999.90;999.90;;;3.60;99.90;;;;;;5033325;28;20702;-65
2021/01/02 07:01:29;;;;;;;1999.90;999.90;;;3.70;99.90;;;;;;5033420;28;20168;-65
2021/01/02 07:03:55;;;;;;;1999.90;999.90;;;3.60;99.90;;;;;;5033361;28;20255;-66
2021/01/02 07:06:21;;;;;;;1999.90;999.90;;;3.70;99.90;;;;;;5033418;28;20176;-65
2021/01/02 07:08:53;;;;;;;1999.90;999.90;;;3.70;99.90;;;;;;5033191;28;20161;-65
2021/01/02 07:11:30;;;;;;;1999.90;999.90;;;3.70;99.90;;;;;;5033725;28;20805;-65
2021/01/02 07:14:08;;;;;;;1999.90;999.90;;;3.70;99.90;;;;;;5033497;28;20192;-65
2021/01/02 07:16:37;;;;;;;1999.90;999.90;;;3.70;99.90;;;;;;5033369;28;20198;-66
2021/01/02 07:19:06;;;;;;;1999.90;999.90;;;3.80;99.90;;;;;;5032998;28;20168;-65
2021/01/02 07:21:36;;;;;;;1999.90;999.90;;;3.80;99.90;;;;;;5033143;28;20235;-66
2021/01/02 07:24:25;;;;;;;1999.90;999.90;;;3.80;99.90;;;;;;5033080;28;20199;-66
2021/01/02 07:27:02;;;;;;;1999.90;999.90;;;3.70;99.90;;;;;;5033088;28;20176;-65
2021/01/02 07:29:32;;;;;;;1999.90;999.90;;;3.70;99.90;;;;;;5032849;28;20201;-65
2021/01/02 07:32:21;;;;;;;1999.90;999.90;;;3.80;99.90;;;;;;5032959;28;20234;-66
2021/01/02 07:34:58;;;;;;;1999.90;999.90;;;3.80;99.90;;;;;;5032915;28;20605;-64
2021/01/02 07:37:29;;;;;;;1999.90;999.90;;;3.80;99.90;;;;;;5032991;28;20609;-66
2021/01/02 07:39:58;;;;;;;1999.90;999.90;;;3.70;99.90;;;;;;5032588;28;20164;-65
2021/01/02 07:42:30;;;;;;;1999.90;999.90;;;3.70;99.90;;;;;;5032848;28;20165;-65
2021/01/02 07:45:09;;;;;;;1999.90;999.90;;;3.80;99.90;;;;;;5032884;28;20792;-65
2021/01/02 07:47:44;;;;;;;1999.90;999.90;;;3.70;99.90;;;;;;5032785;28;20247;-66
2021/01/02 07:50:11;;;;;;;1999.90;999.90;;;3.70;99.90;;;;;;5032451;28;20260;-65
2021/01/02 07:52:46;;;;;;;1999.90;999.90;;;3.80;99.90;;;;;;5032484;28;20661;-64
2021/01/02 07:55:13;;;;;;;1999.90;999.90;;;3.80;99.90;;;;;;5032466;28;20222;-66
2021/01/02 07:57:38;;;;;;;1999.90;999.90;;;3.90;99.90;;;;;;5032465;28;20897;-65
2021/01/02 08:00:07;;;;;;;1999.90;999.90;;;3.90;99.90;;;;;;5031938;28;20188;-65
2021/01/02 08:02:34;;;;;;;1999.90;999.90;;;3.90;99.90;;;;;;5032559;28;20587;-66
2021/01/02 08:04:59;;;;;;;1999.90;999.90;;;3.90;99.90;;;;;;5032577;28;20185;-65
2021/01/02 08:07:25;;;;;;;1999.90;999.90;;;3.90;99.90;;;;;;5032342;28;20195;-66
2021/01/02 08:09:51;;;;;;;1999.90;999.90;;;3.90;99.90;;;;;;5032152;28;20181;-65
2021/01/02 08:12:18;;;;;;;1999.90;999.90;;;3.90;99.90;;;;;;5032162;28;20169;-66
2021/01/02 08:14:48;;;;;;;1999.90;999.90;;;3.90;99.90;;;;;;5031730;28;20266;-66
2021/01/02 08:17:18;;;;;;;1999.90;999.90;;;3.90;99.90;;;;;;5032322;28;20951;-65
2021/01/02 08:19:47;;;;;;;1999.90;999.90;;;3.90;99.90;;;;;;5031815;28;20168;-65
2021/01/02 08:22:14;;;;;;;1999.90;999.90;;;4.00;99.90;;;;;;5031941;28;20164;-66
2021/01/02 08:24:42;;;;;;;1999.90;999.90;;;4.00;99.90;;;;;;5032069;28;20176;-65
2021/01/02 08:27:07;;;;;;;1999.90;999.90;;;4.10;99.90;;;;;;5031925;28;20404;-65
2021/01/02 08:29:34;;;;;;;1999.90;999.90;;;4.10;99.90;;;;;;5031624;28;20896;-65
2021/01/02 08:32:10;;;;;;;1999.90;999.90;;;4.10;99.90;;;;;;5031865;28;20250;-66
2021/01/02 08:34:36;;;;;;;1999.90;999.90;;;4.10;99.90;;;;;;5031660;28;20455;-65
2021/01/02 08:37:05;;;;;;;1999.90;999.90;;;4.20;99.90;;;;;;5031799;28;20904;-64
2021/01/02 08:39:30;;;;;;;1999.90;999.90;;;4.20;99.90;;;;;;5031570;28;20407;-65
2021/01/02 08:41:58;;;;;;;1999.90;999.90;;;4.20;99.90;;;;;;5031539;28;20426;-65
2021/01/02 08:44:29;;;;;;;1999.90;999.90;;;4.30;99.90;;;;;;5031536;28;20279;-66
2021/01/02 08:46:55;;;;;;;1999.90;999.90;;;4.30;99.90;;;;;;5031540;28;20415;-65
2021/01/02 08:49:42;;;;;;;1999.90;999.90;;;4.30;99.90;;;;;;5031260;28;20395;-66
2021/01/02 08:52:23;;;;;;;1999.90;999.90;;;4.30;99.90;;;;;;5031485;28;20399;-65
2021/01/02 08:55:10;;;;;;;1999.90;999.90;;;4.40;99.90;;;;;;5031633;28;20446;-65
2021/01/02 08:57:44;;;;;;;1999.90;999.90;;;4.40;99.90;;;;;;5031320;28;20399;-64
2021/01/02 09:00:29;;;;;;;1999.90;999.90;;;4.50;99.90;;;;;;5031502;28;20403;-65
2021/01/02 09:02:55;;;;;;;1999.90;999.90;;;4.50;99.90;;;;;;5031244;28;20418;-65
2021/01/02 09:05:39;;;;;;;1999.90;999.90;;;4.60;99.90;;;;;;5031335;28;20409;-65
2021/01/02 09:08:09;;;;;;;1999.90;999.90;;;4.60;99.90;;;;;;5031402;28;20196;-64
2021/01/02 09:10:39;;;;;;;1999.90;999.90;;;4.60;99.90;;;;;;5031301;28;20407;-64
2021/01/02 09:13:16;;;;;;;1999.90;999.90;;;4.70;99.90;;;;;;5031203;28;20418;-65
2021/01/02 09:15:51;;;;;;;1999.90;999.90;;;4.80;99.90;;;;;;5031028;28;20817;-65
2021/01/02 09:18:18;;;;;;;1999.90;999.90;;;4.70;99.90;;;;;;5030943;28;20429;-64
2021/01/02 09:20:44;;;;;;;1999.90;999.90;;;4.80;99.90;;;;;;5031156;28;20462;-65
2021/01/02 09:23:10;;;;;;;1999.90;999.90;;;4.90;99.90;;;;;;5031065;28;20423;-65
2021/01/02 09:25:39;;;;;;;1999.90;999.90;;;4.90;99.90;;;;;;5030053;28;20403;-66
2021/01/02 09:28:16;;;;;;;1999.90;999.90;;;4.90;99.90;;;;;;5031045;28;20848;-65
2021/01/02 09:30:46;;;;;;;1999.90;999.90;;;4.90;99.90;;;;;;5030910;28;20183;-66
2021/01/02 09:33:12;;;;;;;1999.90;999.90;;;4.90;99.90;;;;;;5030873;28;21086;-66
2021/01/02 09:35:40;;;;;;;1999.90;999.90;;;5.00;99.90;;;;;;5031049;28;20866;-65
2021/01/02 09:38:06;;;;;;;1999.90;999.90;;;5.10;99.90;;;;;;5030873;28;20398;-64
2021/01/02 09:40:35;;;;;;;1999.90;999.90;;;5.10;99.90;;;;;;5031147;28;20772;-63
2021/01/02 09:43:01;;;;;;;1999.90;999.90;;;5.10;99.90;;;;;;5031019;28;20927;-66
2021/01/02 09:45:27;;;;;;;1999.90;999.90;;;5.10;99.90;;;;;;5030737;28;20466;-66
2021/01/02 09:47:53;;;;;;;1999.90;999.90;;;5.20;99.90;;;;;;5030762;28;20433;-66
2021/01/02 09:50:19;;;;;;;1999.90;999.90;;;5.20;99.90;;;;;;5027209;28;20407;-66
2021/01/02 09:52:45;;;;;;;1999.90;999.90;;;5.30;99.90;;;;;;5029804;28;20545;-66
2021/01/02 09:55:11;;;;;;;1999.90;999.90;;;5.30;99.90;;;;;;5029428;28;20470;-64
2021/01/02 09:57:37;;;;;;;1999.90;999.90;;;5.20;99.90;;;;;;5027601;28;20183;-64
2021/01/02 10:00:05;;;;;;;1999.90;999.90;;;5.30;99.90;;;;;;5029298;28;20435;-65
2021/01/02 10:02:31;;;;;;;1999.90;999.90;;;5.30;99.90;;;;;;5029609;28;20426;-64
2021/01/02 10:04:56;;;;;;;1999.90;999.90;;;5.40;99.90;;;;;;5029195;28;21167;-65
2021/01/02 10:07:22;;;;;;;1999.90;999.90;;;5.40;99.90;;;;;;5029770;28;20225;-66
2021/01/02 10:09:48;;;;;;;1999.90;999.90;;;5.50;99.90;;;;;;5029477;28;20226;-66
2021/01/02 10:12:16;;;;;;;1999.90;999.90;;;5.50;99.90;;;;;;5029119;28;20653;-65
2021/01/02 10:14:42;;;;;;;1999.90;999.90;;;5.50;99.90;;;;;;5029192;28;20200;-64
2021/01/02 10:17:09;;;;;;;1999.90;999.90;;;5.50;99.90;;;;;;5029321;28;20494;-64
2021/01/02 10:19:35;;;;;;;1999.90;999.90;;;5.50;99.90;;;;;;5028845;28;20846;-66
2021/01/02 10:22:03;;;;;;;1999.90;999.90;;;5.60;99.90;;;;;;5029412;28;20502;-65
2021/01/02 10:24:31;;;;;;;1999.90;999.90;;;5.80;99.90;;;;;;5029151;28;20431;-65
2021/01/02 10:26:57;;;;;;;1999.90;999.90;;;5.90;99.90;;;;;;5028680;28;20399;-65
2021/01/02 10:29:23;;;;;;;1999.90;999.90;;;6.00;99.90;;;;;;5028826;28;20403;-65
2021/01/02 10:31:49;;;;;;;1999.90;999.90;;;6.10;99.90;;;;;;5029314;28;20437;-66
2021/01/02 10:34:16;;;;;;;1999.90;999.90;;;6.20;99.90;;;;;;5028963;28;20793;-66
2021/01/02 10:36:46;;;;;;;1999.90;999.90;;;6.10;99.90;;;;;;5030650;28;20407;-65
2021/01/02 10:39:12;;;;;;;1999.90;999.90;;;6.10;99.90;;;;;;5032580;28;20737;-66
2021/01/02 10:41:38;;;;;;;1999.90;999.90;;;6.10;99.90;;;;;;5032742;28;20413;-65
2021/01/02 10:44:04;;;;;;;1999.90;999.90;;;6.20;99.90;;;;;;5032727;28;20446;-65
2021/01/02 10:46:29;;;;;;;1999.90;999.90;;;6.20;99.90;;;;;;5032514;28;20510;-65
2021/01/02 10:48:55;;;;;;;1999.90;999.90;;;6.20;99.90;;;;;;5032262;28;20402;-64
2021/01/02 10:51:21;;;;;;;1999.90;999.90;;;6.20;99.90;;;;;;5032314;28;20195;-66
2021/01/02 10:53:47;;;;;;;1999.90;999.90;;;6.20;99.90;;;;;;5033005;28;20189;-66
2021/01/02 10:56:18;;;;;;;1999.90;999.90;;;6.10;99.90;;;;;;5032322;28;20710;-66
2021/01/02 10:58:43;;;;;;;1999.90;999.90;;;6.00;99.90;;;;;;5032087;28;20160;-66
2021/01/02 11:01:09;;;;;;;1999.90;999.90;;;5.90;99.90;;;;;;5032756;28;20429;-66
2021/01/02 11:03:36;;;;;;;1999.90;999.90;;;6.00;99.90;;;;;;5032593;28;20184;-66
2021/01/02 11:06:07;;;;;;;1999.90;999.90;;;6.00;99.90;;;;;;5040137;28;20414;-65
2021/01/02 11:08:37;;;;;;;1999.90;999.90;;;6.00;99.90;;;;;;5051365;28;20417;-64
2021/01/02 11:11:04;;;;;;;1999.90;999.90;;;6.00;99.90;;;;;;5051735;28;20402;-65
2021/01/02 11:13:30;;;;;;;1999.90;999.90;;;5.90;99.90;;;;;;5051518;28;20433;-64
2021/01/02 11:15:55;;;;;;;1999.90;999.90;;;5.90;99.90;;;;;;5051608;28;20445;-65
2021/01/02 11:18:21;;;;;;;1999.90;999.90;;;5.90;99.90;;;;;;5051568;28;20175;-65
2021/01/02 11:20:48;;;;;;;1999.90;999.90;;;5.80;99.90;;;;;;5051267;28;20249;-65
2021/01/02 11:23:20;;;;;;;1999.90;999.90;;;5.70;99.90;;;;;;5051329;28;20245;-65
2021/01/02 11:25:46;;;;;;;1999.90;999.90;;;5.80;99.90;;;;;;5051818;28;20409;-65
2021/01/02 11:28:13;;;;;;;1999.90;999.90;;;5.90;99.90;;;;;;5051180;28;20406;-64
2021/01/02 11:30:39;;;;;;;1999.90;999.90;;;6.00;99.90;;;;;;5051474;28;20407;-65
2021/01/02 11:33:06;;;;;;;1999.90;999.90;;;6.10;99.90;;;;;;5051291;28;20862;-63
2021/01/02 11:35:32;;;;;;;1999.90;999.90;;;6.10;99.90;;;;;;5050932;28;20983;-65
2021/01/02 11:37:58;;;;;;;1999.90;999.90;;;5.90;99.90;;;;;;5051445;28;20417;-64
2021/01/02 11:40:24;;;;;;;1999.90;999.90;;;5.90;99.90;;;;;;5051806;28;20386;-64
2021/01/02 11:42:49;;;;;;;1999.90;999.90;;;5.80;99.90;;;;;;5051533;28;20187;-65
2021/01/02 11:45:17;;;;;;;1999.90;999.90;;;5.80;99.90;;;;;;5052866;28;20410;-65
2021/01/02 11:47:43;;;;;;;1999.90;999.90;;;5.80;99.90;;;;;;5050764;28;20176;-65
2021/01/02 11:50:10;;;;;;;1999.90;999.90;;;5.70;99.90;;;;;;5051083;28;20410;-65
2021/01/02 11:52:35;;;;;;;1999.90;999.90;;;5.70;99.90;;;;;;5051240;28;20575;-65
2021/01/02 11:55:02;;;;;;;1999.90;999.90;;;5.70;99.90;;;;;;5051239;28;20453;-64
2021/01/02 11:57:28;;;;;;;1999.90;999.90;;;5.70;99.90;;;;;;5051433;28;20566;-63
2021/01/02 11:59:54;;;;;;;1999.90;999.90;;;5.70;99.90;;;;;;5052284;28;20414;-64
2021/01/02 12:02:19;;;;;;;1999.90;999.90;;;5.70;99.90;;;;;;5051661;28;20168;-64
2021/01/02 12:04:45;;;;;;;1999.90;999.90;;;5.70;99.90;;;;;;5051219;28;20171;-64
2021/01/02 12:07:11;;;;;;;1999.90;999.90;;;5.50;99.90;;;;;;5051422;28;20813;-64
2021/01/02 12:09:38;;;;;;;1999.90;999.90;;;5.50;99.90;;;;;;5050967;28;20403;-64
2021/01/02 12:12:05;;;;;;;1999.90;999.90;;;5.60;99.90;;;;;;5050829;28;20406;-65
2021/01/02 12:14:34;;;;;;;1999.90;999.90;;;5.60;99.90;;;;;;5050764;28;20256;-65
2021/01/02 12:17:06;;;;;;;1999.90;999.90;;;5.70;99.90;;;;;;5050577;28;20399;-64
2021/01/02 12:19:31;;;;;;;1999.90;999.90;;;5.80;99.90;;;;;;5049977;28;20383;-65
2021/01/02 12:22:00;;;;;;;1999.90;999.90;;;5.80;99.90;;;;;;5050891;28;20819;-64
2021/01/02 12:24:26;;;;;;;1999.90;999.90;;;6.00;99.90;;;;;;5050761;28;20217;-65
2021/01/02 12:26:54;;;;;;;1999.90;999.90;;;6.00;99.90;;;;;;5050190;28;20438;-66